createdAt,value
2018-03-22T00:00:05.707Z,0
2018-03-22T00:01:15.718Z,0
2018-03-22T00:02:25.744Z,0
2018-03-22T00:03:35.243Z,0
2018-03-22T00:04:44.999Z,0
2018-03-22T00:05:54.496Z,0
2018-03-22T00:07:04.257Z,0
2018-03-22T00:08:14.278Z,0
2018-03-22T00:09:24.296Z,0
2018-03-22T00:10:34.306Z,0
2018-03-22T00:11:43.824Z,0
2018-03-22T00:12:53.622Z,0
2018-03-22T00:14:03.688Z,0
2018-03-22T00:15:13.498Z,0
2018-03-22T00:16:23.291Z,0
2018-03-22T00:17:33.121Z,0
2018-03-22T00:18:42.658Z,0
2018-03-22T00:19:52.751Z,0
2018-03-22T00:21:02.867Z,0
2018-03-22T00:22:12.659Z,0
2018-03-22T00:23:22.732Z,0
2018-03-22T00:24:32.535Z,0
2018-03-22T00:25:42.076Z,0
2018-03-22T00:26:52.190Z,0
2018-03-22T00:28:02.262Z,0
2018-03-22T00:29:12.336Z,0
2018-03-22T00:30:22.418Z,0
2018-03-22T00:31:32.485Z,0
2018-03-22T00:32:42.301Z,0
2018-03-22T00:33:52.377Z,0
2018-03-22T00:35:02.163Z,0
2018-03-22T00:36:12.370Z,0
2018-03-22T00:37:22.158Z,0
2018-03-22T00:38:31.990Z,0
2018-03-22T00:39:41.256Z,0
2018-03-22T00:40:51.335Z,0
2018-03-22T00:42:01.399Z,0
2018-03-22T00:43:11.251Z,0
2018-03-22T00:44:21.357Z,0
2018-03-22T00:45:31.409Z,0
2018-03-22T00:46:41.465Z,0
2018-03-22T00:47:51.273Z,0
2018-03-22T00:49:01.077Z,0
2018-03-22T00:50:10.870Z,0
2018-03-22T00:51:20.655Z,0
2018-03-22T00:52:30.180Z,0
2018-03-22T00:53:39.706Z,0
2018-03-22T00:54:49.489Z,0
2018-03-22T00:55:59.087Z,0
2018-03-22T00:57:08.881Z,0
2018-03-22T00:58:18.953Z,0
2018-03-22T00:59:28.464Z,0
2018-03-22T01:00:38.512Z,0
2018-03-22T01:01:48.039Z,0
2018-03-22T01:02:57.836Z,0
2018-03-22T01:04:07.884Z,0
2018-03-22T01:05:17.932Z,0
2018-03-22T01:06:27.460Z,0
2018-03-22T01:07:37.302Z,0
2018-03-22T01:08:47.381Z,0
2018-03-22T01:09:57.439Z,0
2018-03-22T01:11:07.223Z,0
2018-03-22T01:12:17.272Z,0
2018-03-22T01:13:27.079Z,0
2018-03-22T01:14:37.136Z,0
2018-03-22T01:15:46.660Z,0
2018-03-22T01:16:56.457Z,0
2018-03-22T01:18:05.463Z,0
2018-03-22T01:19:15.569Z,0
2018-03-22T01:20:25.632Z,0
2018-03-22T01:21:35.147Z,0
2018-03-22T01:22:44.937Z,0
2018-03-22T01:23:54.994Z,0
2018-03-22T01:25:05.059Z,0
2018-03-22T01:26:15.115Z,0
2018-03-22T01:27:25.163Z,0
2018-03-22T01:28:34.424Z,0
2018-03-22T01:29:44.221Z,0
2018-03-22T01:30:53.754Z,0
2018-03-22T01:32:03.820Z,0
2018-03-22T01:33:13.610Z,0
2018-03-22T01:34:23.143Z,0
2018-03-22T01:35:33.207Z,0
2018-03-22T01:36:42.802Z,0
2018-03-22T01:37:52.590Z,0
2018-03-22T01:39:02.674Z,0
2018-03-22T01:40:12.737Z,0
2018-03-22T01:41:22.807Z,0
2018-03-22T01:42:32.916Z,0
2018-03-22T01:43:42.711Z,0
2018-03-22T01:44:51.976Z,0
2018-03-22T01:46:02.028Z,0
2018-03-22T01:47:11.568Z,0
2018-03-22T01:48:21.626Z,0
2018-03-22T01:49:31.175Z,0
2018-03-22T01:50:40.972Z,0
2018-03-22T01:51:51.036Z,0
2018-03-22T01:53:01.096Z,0
2018-03-22T01:54:11.249Z,0
2018-03-22T01:55:21.310Z,0
2018-03-22T01:56:31.361Z,0
2018-03-22T01:57:41.167Z,0
2018-03-22T01:58:50.441Z,0
2018-03-22T02:00:00.552Z,0
2018-03-22T02:01:10.349Z,0
2018-03-22T02:02:19.622Z,0
2018-03-22T02:03:29.682Z,0
2018-03-22T02:04:39.221Z,0
2018-03-22T02:05:48.264Z,0
2018-03-22T02:06:58.058Z,0
2018-03-22T02:08:07.585Z,0
2018-03-22T02:09:17.639Z,0
2018-03-22T02:10:27.196Z,0
2018-03-22T02:11:37.249Z,0
2018-03-22T02:12:47.326Z,0
2018-03-22T02:13:57.394Z,0
2018-03-22T02:15:07.189Z,0
2018-03-22T02:16:17.245Z,0
2018-03-22T02:17:27.359Z,0
2018-03-22T02:18:36.633Z,0
2018-03-22T02:19:46.691Z,0
2018-03-22T02:20:56.753Z,0
2018-03-22T02:22:06.536Z,0
2018-03-22T02:23:16.351Z,0
2018-03-22T02:24:26.424Z,0
2018-03-22T02:25:35.943Z,0
2018-03-22T02:26:45.988Z,0
2018-03-22T02:27:56.044Z,0
2018-03-22T02:29:06.095Z,0
2018-03-22T02:30:15.891Z,0
2018-03-22T02:31:25.735Z,0
2018-03-22T02:32:35.276Z,0
2018-03-22T02:33:44.802Z,0
2018-03-22T02:34:54.951Z,0
2018-03-22T02:36:04.206Z,0
2018-03-22T02:37:14.014Z,0
2018-03-22T02:38:24.080Z,0
2018-03-22T02:39:33.878Z,0
2018-03-22T02:40:43.457Z,0
2018-03-22T02:41:53.513Z,0
2018-03-22T02:43:03.531Z,0
2018-03-22T02:44:13.761Z,0
2018-03-22T02:45:23.298Z,0
2018-03-22T02:46:33.350Z,0
2018-03-22T02:47:43.517Z,0
2018-03-22T02:48:53.569Z,0
2018-03-22T02:50:03.369Z,0
2018-03-22T02:51:13.374Z,0
2018-03-22T02:52:23.530Z,0
2018-03-22T02:53:33.597Z,0
2018-03-22T02:54:43.142Z,0
2018-03-22T02:55:52.947Z,0
2018-03-22T02:57:02.812Z,0
2018-03-22T02:58:12.884Z,0
2018-03-22T02:59:22.680Z,0
2018-03-22T03:00:32.563Z,0
2018-03-22T03:01:42.137Z,0
2018-03-22T03:02:51.672Z,0
2018-03-22T03:04:01.807Z,0
2018-03-22T03:05:11.364Z,0
2018-03-22T03:06:20.885Z,0
2018-03-22T03:07:30.940Z,0
2018-03-22T03:39:20.686Z,0
2018-03-22T03:40:30.743Z,0
2018-03-22T03:41:40.583Z,0
2018-03-22T03:42:50.407Z,0
2018-03-22T03:44:00.154Z,0
2018-03-22T03:45:09.685Z,0
2018-03-22T03:46:19.749Z,0
2018-03-22T03:47:29.277Z,0
2018-03-22T03:48:39.075Z,0
2018-03-22T03:49:48.927Z,0
2018-03-22T03:50:59.022Z,0
2018-03-22T03:52:08.830Z,0
2018-03-22T03:53:18.888Z,0
2018-03-22T03:54:28.942Z,0
2018-03-22T03:55:38.467Z,0
2018-03-22T03:56:48.567Z,0
2018-03-22T03:57:58.368Z,0
2018-03-22T03:59:08.413Z,0
2018-03-22T04:00:17.958Z,0
2018-03-22T04:01:27.759Z,0
2018-03-22T04:02:37.821Z,0
2018-03-22T04:03:47.636Z,0
2018-03-22T04:04:57.689Z,0
2018-03-22T04:06:07.204Z,0
2018-03-22T04:07:17.269Z,0
2018-03-22T04:08:27.120Z,0
2018-03-22T04:09:37.182Z,0
2018-03-22T04:10:46.441Z,0
2018-03-22T04:11:56.236Z,0
2018-03-22T04:13:06.281Z,0
2018-03-22T04:14:16.374Z,0
2018-03-22T04:15:26.164Z,0
2018-03-22T04:16:35.965Z,0
2018-03-22T04:17:45.768Z,0
2018-03-22T04:18:55.572Z,0
2018-03-22T04:20:05.423Z,0
2018-03-22T04:21:15.221Z,0
2018-03-22T04:22:25.272Z,0
2018-03-22T04:23:35.329Z,0
2018-03-22T04:24:45.126Z,0
2018-03-22T04:25:55.168Z,0
2018-03-22T04:27:05.261Z,0
2018-03-22T04:28:15.075Z,0
2018-03-22T04:29:24.858Z,0
2018-03-22T04:30:34.654Z,0
2018-03-22T04:31:44.499Z,0
2018-03-22T04:32:54.552Z,0
2018-03-22T04:34:04.353Z,0
2018-03-22T04:35:14.404Z,0
2018-03-22T04:36:24.460Z,0
2018-03-22T04:37:34.324Z,0
2018-03-22T04:38:44.116Z,0
2018-03-22T04:39:53.646Z,0
2018-03-22T04:41:03.173Z,0
2018-03-22T04:42:13.230Z,0
2018-03-22T04:43:23.296Z,0
2018-03-22T04:44:32.841Z,0
2018-03-22T04:45:42.909Z,0
2018-03-22T04:46:52.971Z,0
2018-03-22T04:48:02.495Z,0
2018-03-22T04:49:12.287Z,0
2018-03-22T04:50:21.808Z,0
2018-03-22T04:51:31.586Z,5
2018-03-22T04:52:41.648Z,5
2018-03-22T04:53:51.437Z,5
2018-03-22T04:55:01.568Z,5
2018-03-22T04:56:11.367Z,5
2018-03-22T04:57:20.895Z,5
2018-03-22T04:58:30.752Z,5
2018-03-22T04:59:40.550Z,10
2018-03-22T05:00:50.123Z,10
2018-03-22T05:02:00.186Z,10
2018-03-22T05:03:10.238Z,10
2018-03-22T05:04:20.280Z,15
2018-03-22T05:05:30.323Z,15
2018-03-22T05:06:40.665Z,15
2018-03-22T05:07:50.715Z,15
2018-03-22T05:09:00.515Z,20
2018-03-22T05:10:10.568Z,20
2018-03-22T05:11:20.614Z,20
2018-03-22T05:12:30.687Z,20
2018-03-22T05:13:40.763Z,25
2018-03-22T05:14:50.820Z,25
2018-03-22T05:16:00.651Z,25
2018-03-22T05:17:10.748Z,25
2018-03-22T05:18:20.855Z,30
2018-03-22T05:19:30.896Z,30
2018-03-22T05:20:40.673Z,30
2018-03-22T05:21:50.197Z,30
2018-03-22T05:23:00.252Z,35
2018-03-22T05:24:10.045Z,35
2018-03-22T05:25:19.832Z,35
2018-03-22T05:26:29.878Z,40
2018-03-22T05:27:39.924Z,35
2018-03-22T05:28:49.980Z,35
2018-03-22T05:30:00.093Z,40
2018-03-22T05:31:10.160Z,40
2018-03-22T05:32:20.237Z,40
2018-03-22T05:33:30.022Z,40
2018-03-22T05:34:40.082Z,45
2018-03-22T05:35:49.888Z,45
2018-03-22T05:36:59.678Z,45
2018-03-22T05:38:09.733Z,50
2018-03-22T05:39:19.846Z,50
2018-03-22T05:40:29.400Z,50
2018-03-22T05:41:39.461Z,50
2018-03-22T05:42:49.252Z,55
2018-03-22T05:43:59.323Z,55
2018-03-22T05:45:09.098Z,55
2018-03-22T05:46:18.881Z,60
2018-03-22T05:47:28.415Z,65
2018-03-22T05:48:38.211Z,65
2018-03-22T05:49:48.002Z,65
2018-03-22T05:50:57.814Z,65
2018-03-22T05:52:07.614Z,65
2018-03-22T05:53:17.680Z,65
2018-03-22T05:54:27.205Z,70
2018-03-22T05:55:36.480Z,70
2018-03-22T05:56:46.531Z,70
2018-03-22T05:57:56.105Z,70
2018-03-22T05:59:05.887Z,75
2018-03-22T06:00:15.939Z,75
2018-03-22T06:01:26.016Z,75
2018-03-22T06:02:35.831Z,75
2018-03-22T06:03:45.874Z,80
2018-03-22T06:04:55.989Z,80
2018-03-22T06:06:05.786Z,80
2018-03-22T06:07:15.860Z,85
2018-03-22T06:08:25.399Z,85
2018-03-22T06:09:35.442Z,85
2018-03-22T06:10:45.299Z,85
2018-03-22T06:11:55.365Z,85
2018-03-22T06:13:05.405Z,90
2018-03-22T06:14:15.201Z,90
2018-03-22T06:15:24.725Z,90
2018-03-22T06:16:34.311Z,90
2018-03-22T06:17:44.110Z,95
2018-03-22T06:18:54.198Z,95
2018-03-22T06:20:04.013Z,95
2018-03-22T06:21:14.075Z,95
2018-03-22T06:22:24.124Z,95
2018-03-22T06:23:33.928Z,95
2018-03-22T06:24:43.470Z,95
2018-03-22T06:25:53.267Z,95
2018-03-22T06:27:03.342Z,105
2018-03-22T06:28:12.938Z,100
2018-03-22T06:29:22.477Z,100
2018-03-22T06:30:32.018Z,100
2018-03-22T06:31:41.807Z,100
2018-03-22T06:32:51.961Z,100
2018-03-22T06:34:01.758Z,105
2018-03-22T06:35:11.847Z,105
2018-03-22T06:36:21.642Z,105
2018-03-22T06:37:31.444Z,105
2018-03-22T06:38:40.976Z,105
2018-03-22T06:39:50.567Z,105
2018-03-22T06:41:00.642Z,105
2018-03-22T06:42:10.161Z,105
2018-03-22T06:43:19.977Z,105
2018-03-22T06:44:29.768Z,110
2018-03-22T06:45:39.564Z,110
2018-03-22T06:46:49.628Z,110
2018-03-22T06:47:59.682Z,110
2018-03-22T06:49:09.476Z,110
2018-03-22T06:50:19.267Z,110
2018-03-22T06:51:29.382Z,110
2018-03-22T06:52:38.918Z,110
2018-03-22T06:53:48.461Z,115
2018-03-22T06:54:59.806Z,115
2018-03-22T06:56:17.628Z,115
2018-03-22T06:57:28.906Z,115
2018-03-22T06:58:38.442Z,115
2018-03-22T06:59:48.515Z,115
2018-03-22T07:00:57.772Z,115
2018-03-22T07:02:07.325Z,115
2018-03-22T07:03:17.406Z,120
2018-03-22T07:04:27.204Z,120
2018-03-22T07:05:36.997Z,120
2018-03-22T07:06:46.778Z,120
2018-03-22T07:07:56.574Z,120
2018-03-22T07:09:06.441Z,120
2018-03-22T07:10:16.518Z,120
2018-03-22T07:11:26.590Z,120
2018-03-22T07:12:36.377Z,125
2018-03-22T07:13:46.440Z,125
2018-03-22T07:14:55.711Z,125
2018-03-22T07:16:05.525Z,125
2018-03-22T07:17:15.588Z,125
2018-03-22T07:18:25.658Z,125
2018-03-22T07:19:35.447Z,125
2018-03-22T07:20:44.984Z,130
2018-03-22T07:21:54.556Z,130
2018-03-22T07:23:04.413Z,130
2018-03-22T07:24:13.954Z,130
2018-03-22T07:25:24.050Z,130
2018-03-22T07:26:33.637Z,130
2018-03-22T07:27:43.692Z,130
2018-03-22T07:28:53.776Z,135
2018-03-22T07:30:03.598Z,135
2018-03-22T07:31:13.136Z,135
2018-03-22T07:32:22.670Z,135
2018-03-22T07:33:32.499Z,135
2018-03-22T07:34:42.319Z,135
2018-03-22T07:35:52.121Z,135
2018-03-22T07:37:02.222Z,135
2018-03-22T07:38:12.346Z,145
2018-03-22T07:39:22.131Z,140
2018-03-22T07:40:32.178Z,140
2018-03-22T07:41:42.242Z,145
2018-03-22T07:42:52.029Z,140
2018-03-22T07:44:01.600Z,140
2018-03-22T07:45:11.489Z,145
2018-03-22T07:46:21.305Z,145
2018-03-22T07:47:31.108Z,145
2018-03-22T07:48:41.170Z,145
2018-03-22T07:49:51.288Z,145
2018-03-22T07:51:01.344Z,145
2018-03-22T07:52:11.424Z,145
2018-03-22T07:53:21.495Z,150
2018-03-22T07:54:31.057Z,150
2018-03-22T07:55:40.617Z,150
2018-03-22T07:56:50.434Z,150
2018-03-22T07:58:00.511Z,150
2018-03-22T07:59:10.297Z,150
2018-03-22T08:00:20.384Z,150
2018-03-22T08:01:45.081Z,155
2018-03-22T08:02:55.127Z,155
2018-03-22T08:04:04.645Z,155
2018-03-22T08:05:14.464Z,155
2018-03-22T08:06:24.287Z,155
2018-03-22T08:07:34.136Z,155
2018-03-22T08:08:44.190Z,155
2018-03-22T08:09:54.005Z,155
2018-03-22T08:11:04.076Z,155
2018-03-22T08:12:13.881Z,160
2018-03-22T08:13:23.979Z,160
2018-03-22T08:14:34.036Z,160
2018-03-22T08:15:43.573Z,160
2018-03-22T08:16:53.110Z,160
2018-03-22T08:18:03.166Z,160
2018-03-22T08:19:12.973Z,160
2018-03-22T08:20:22.770Z,160
2018-03-22T08:21:32.829Z,165
2018-03-22T08:22:42.901Z,165
2018-03-22T08:23:52.712Z,165
2018-03-22T08:25:02.777Z,170
2018-03-22T08:26:12.595Z,165
2018-03-22T08:27:22.657Z,170
2018-03-22T08:28:32.459Z,170
2018-03-22T08:29:42.057Z,170
2018-03-22T08:30:52.117Z,170
2018-03-22T08:32:01.926Z,165
2018-03-22T08:33:12.046Z,165
2018-03-22T08:34:22.119Z,165
2018-03-22T08:35:31.923Z,165
2018-03-22T08:36:41.462Z,170
2018-03-22T08:37:51.543Z,170
2018-03-22T08:39:01.626Z,170
2018-03-22T08:40:11.690Z,170
2018-03-22T08:41:22.046Z,170
2018-03-22T08:42:32.119Z,175
2018-03-22T08:43:41.925Z,170
2018-03-22T08:44:51.730Z,175
2018-03-22T08:46:01.524Z,175
2018-03-22T08:47:11.319Z,175
2018-03-22T08:48:21.547Z,175
2018-03-22T08:49:31.393Z,175
2018-03-22T08:50:40.921Z,175
2018-03-22T08:51:50.726Z,175
2018-03-22T08:53:00.261Z,175
2018-03-22T08:54:10.342Z,175
2018-03-22T08:55:20.449Z,180
2018-03-22T08:56:30.513Z,180
2018-03-22T08:57:40.582Z,180
2018-03-22T08:58:50.671Z,180
2018-03-22T09:00:00.745Z,180
2018-03-22T09:01:10.280Z,180
2018-03-22T09:02:20.356Z,180
2018-03-22T09:03:30.411Z,180
2018-03-22T09:04:40.484Z,185
2018-03-22T09:05:50.273Z,180
2018-03-22T09:07:00.341Z,180
2018-03-22T09:08:10.528Z,175
2018-03-22T09:09:20.450Z,175
2018-03-22T09:10:30.506Z,185
2018-03-22T09:11:40.585Z,185
2018-03-22T09:12:50.649Z,185
2018-03-22T09:13:59.920Z,185
2018-03-22T09:15:09.457Z,190
2018-03-22T09:16:19.532Z,190
2018-03-22T09:17:29.590Z,190
2018-03-22T09:18:39.127Z,190
2018-03-22T09:19:48.945Z,190
2018-03-22T09:20:58.536Z,190
2018-03-22T09:22:08.589Z,190
2018-03-22T09:23:18.663Z,190
2018-03-22T09:24:28.717Z,190
2018-03-22T09:25:38.782Z,190
2018-03-22T09:26:48.848Z,195
2018-03-22T09:27:58.732Z,195
2018-03-22T09:29:08.784Z,195
2018-03-22T09:30:18.586Z,195
2018-03-22T09:31:28.376Z,195
2018-03-22T09:32:38.464Z,195
2018-03-22T09:33:48.577Z,195
2018-03-22T09:34:58.506Z,195
2018-03-22T09:36:08.038Z,195
2018-03-22T09:37:18.122Z,195
2018-03-22T09:38:28.164Z,195
2018-03-22T09:39:37.971Z,195
2018-03-22T09:40:48.037Z,195
2018-03-22T09:41:58.201Z,200
2018-03-22T09:43:07.990Z,205
2018-03-22T09:44:17.808Z,200
2018-03-22T09:45:27.888Z,195
2018-03-22T09:46:37.968Z,200
2018-03-22T09:47:47.773Z,200
2018-03-22T09:48:57.301Z,200
2018-03-22T09:50:06.848Z,200
2018-03-22T09:51:16.920Z,200
2018-03-22T09:52:26.983Z,200
2018-03-22T09:53:37.031Z,200
2018-03-22T09:54:46.318Z,205
2018-03-22T09:55:55.906Z,205
2018-03-22T09:57:05.926Z,205
2018-03-22T09:58:15.979Z,205
2018-03-22T09:59:26.051Z,200
2018-03-22T10:00:36.115Z,205
2018-03-22T10:01:45.923Z,205
2018-03-22T10:02:56.093Z,205
2018-03-22T10:04:05.635Z,205
2018-03-22T10:05:15.706Z,205
2018-03-22T10:06:25.495Z,210
2018-03-22T10:07:35.345Z,210
2018-03-22T10:08:45.138Z,210
2018-03-22T10:09:54.929Z,205
2018-03-22T10:11:05.037Z,205
2018-03-22T10:12:15.104Z,210
2018-03-22T10:13:25.225Z,210
2018-03-22T10:14:35.327Z,210
2018-03-22T10:15:45.424Z,215
2018-03-22T10:16:54.981Z,210
2018-03-22T10:18:05.645Z,215
2018-03-22T10:19:15.913Z,210
2018-03-22T10:20:25.465Z,210
2018-03-22T10:21:35.540Z,210
2018-03-22T10:22:45.594Z,215
2018-03-22T10:23:55.397Z,210
2018-03-22T10:25:05.463Z,215
2018-03-22T10:26:15.531Z,215
2018-03-22T10:27:25.613Z,215
2018-03-22T10:28:35.433Z,215
2018-03-22T10:29:45.509Z,215
2018-03-22T10:30:55.369Z,215
2018-03-22T10:32:04.931Z,215
2018-03-22T10:33:15.002Z,215
2018-03-22T10:34:25.062Z,215
2018-03-22T10:35:35.137Z,215
2018-03-22T10:36:45.199Z,215
2018-03-22T10:37:55.003Z,215
2018-03-22T10:39:05.095Z,215
2018-03-22T10:40:14.360Z,215
2018-03-22T10:41:24.410Z,215
2018-03-22T10:42:34.494Z,215
2018-03-22T10:43:44.292Z,210
2018-03-22T10:44:54.379Z,205
2018-03-22T10:46:03.656Z,210
2018-03-22T10:47:13.238Z,215
2018-03-22T10:48:22.789Z,205
2018-03-22T10:49:32.858Z,210
2018-03-22T10:50:42.403Z,215
2018-03-22T10:51:52.498Z,215
2018-03-22T10:53:02.344Z,215
2018-03-22T10:54:12.452Z,215
2018-03-22T10:55:22.574Z,215
2018-03-22T10:56:32.372Z,215
2018-03-22T10:57:41.917Z,215
2018-03-22T10:58:52.033Z,215
2018-03-22T11:00:01.820Z,220
2018-03-22T11:01:11.896Z,215
2018-03-22T11:02:21.971Z,215
2018-03-22T11:03:31.760Z,215
2018-03-22T11:04:41.306Z,220
2018-03-22T11:05:51.100Z,215
2018-03-22T11:07:01.173Z,215
2018-03-22T11:08:11.244Z,220
2018-03-22T11:09:21.323Z,220
2018-03-22T11:10:31.387Z,135
2018-03-22T11:11:41.457Z,120
2018-03-22T11:12:51.276Z,215
2018-03-22T11:14:01.147Z,215
2018-03-22T11:15:10.953Z,215
2018-03-22T11:16:20.762Z,215
2018-03-22T11:17:30.559Z,215
2018-03-22T11:18:40.348Z,220
2018-03-22T11:19:50.306Z,215
2018-03-22T11:21:00.128Z,220
2018-03-22T11:22:09.954Z,215
2018-03-22T11:23:20.020Z,210
2018-03-22T11:24:29.838Z,215
2018-03-22T11:25:39.638Z,220
2018-03-22T11:26:49.468Z,220
2018-03-22T11:27:59.072Z,220
2018-03-22T11:29:09.136Z,220
2018-03-22T11:30:18.931Z,220
2018-03-22T11:31:28.486Z,220
2018-03-22T11:32:38.568Z,220
2018-03-22T11:33:48.374Z,215
2018-03-22T11:34:58.450Z,220
2018-03-22T11:36:08.515Z,220
2018-03-22T11:37:18.573Z,220
2018-03-22T11:38:28.359Z,220
2018-03-22T11:39:38.424Z,225
2018-03-22T11:40:48.229Z,230
2018-03-22T11:41:58.294Z,225
2018-03-22T11:43:08.345Z,225
2018-03-22T11:44:18.443Z,220
2018-03-22T11:45:28.565Z,220
2018-03-22T11:46:38.377Z,215
2018-03-22T11:47:48.451Z,220
2018-03-22T11:48:58.524Z,215
2018-03-22T11:50:08.606Z,225
2018-03-22T11:51:18.664Z,225
2018-03-22T11:52:28.736Z,225
2018-03-22T11:53:38.813Z,225
2018-03-22T11:54:48.895Z,225
2018-03-22T11:55:58.971Z,225
2018-03-22T11:57:08.832Z,225
2018-03-22T11:58:18.884Z,225
2018-03-22T11:59:28.726Z,225
2018-03-22T12:00:38.801Z,220
2018-03-22T12:01:48.649Z,220
2018-03-22T12:02:58.451Z,225
2018-03-22T12:04:08.276Z,225
2018-03-22T12:05:18.339Z,225
2018-03-22T12:06:28.407Z,225
2018-03-22T12:07:38.213Z,225
2018-03-22T12:08:48.287Z,220
2018-03-22T12:09:58.351Z,220
2018-03-22T12:11:08.269Z,220
2018-03-22T12:12:18.361Z,220
2018-03-22T12:13:28.430Z,220
2018-03-22T12:14:38.499Z,220
2018-03-22T12:15:48.588Z,220
2018-03-22T12:16:58.391Z,225
2018-03-22T12:18:08.447Z,220
2018-03-22T12:19:18.517Z,225
2018-03-22T12:20:28.636Z,220
2018-03-22T12:21:38.780Z,220
2018-03-22T12:22:48.648Z,220
2018-03-22T12:23:58.454Z,225
2018-03-22T12:25:08.555Z,225
2018-03-22T12:26:18.634Z,225
2018-03-22T12:27:28.176Z,225
2018-03-22T12:28:37.775Z,225
2018-03-22T12:29:47.308Z,225
2018-03-22T12:30:56.843Z,225
2018-03-22T12:32:06.958Z,225
2018-03-22T12:33:16.761Z,220
2018-03-22T12:34:26.843Z,225
2018-03-22T12:35:36.911Z,220
2018-03-22T12:36:46.996Z,220
2018-03-22T12:37:57.083Z,220
2018-03-22T12:39:07.151Z,180
2018-03-22T12:40:16.978Z,210
2018-03-22T12:41:26.511Z,220
2018-03-22T12:42:36.324Z,215
2018-03-22T12:43:46.179Z,210
2018-03-22T12:44:56.063Z,215
2018-03-22T12:46:06.266Z,205
2018-03-22T12:47:16.064Z,205
2018-03-22T12:48:25.884Z,210
2018-03-22T12:49:35.465Z,210
2018-03-22T12:50:45.261Z,215
2018-03-22T12:51:55.326Z,215
2018-03-22T12:53:05.144Z,210
2018-03-22T12:54:14.965Z,210
2018-03-22T12:55:24.813Z,210
2018-03-22T12:56:34.892Z,210
2018-03-22T12:57:44.969Z,205
2018-03-22T12:58:55.053Z,210
2018-03-22T13:00:05.197Z,210
2018-03-22T13:01:15.326Z,210
2018-03-22T13:02:25.405Z,210
2018-03-22T13:03:35.497Z,205
2018-03-22T13:04:45.310Z,205
2018-03-22T13:05:55.121Z,205
2018-03-22T13:07:04.998Z,205
2018-03-22T13:08:14.798Z,205
2018-03-22T13:09:24.869Z,205
2018-03-22T13:10:34.953Z,200
2018-03-22T13:11:44.510Z,205
2018-03-22T13:12:54.701Z,205
2018-03-22T13:14:04.036Z,205
2018-03-22T13:15:13.899Z,205
2018-03-22T13:16:23.724Z,205
2018-03-22T13:17:33.791Z,205
2018-03-22T13:18:43.201Z,205
2018-03-22T13:19:52.998Z,205
2018-03-22T13:21:02.555Z,205
2018-03-22T13:22:12.360Z,200
2018-03-22T13:23:22.428Z,200
2018-03-22T13:24:32.360Z,200
2018-03-22T13:25:42.183Z,200
2018-03-22T13:26:52.246Z,200
2018-03-22T13:28:02.040Z,200
2018-03-22T13:29:12.115Z,205
2018-03-22T13:30:21.973Z,200
2018-03-22T13:31:32.043Z,200
2018-03-22T13:32:41.590Z,200
2018-03-22T13:33:51.674Z,195
2018-03-22T13:35:01.751Z,195
2018-03-22T13:36:11.556Z,195
2018-03-22T13:37:21.114Z,195
2018-03-22T13:38:30.924Z,190
2018-03-22T13:39:40.741Z,190
2018-03-22T13:40:50.823Z,190
2018-03-22T13:42:00.686Z,190
2018-03-22T13:43:10.493Z,190
2018-03-22T13:44:20.286Z,190
2018-03-22T13:45:30.089Z,190
2018-03-22T13:46:40.156Z,190
2018-03-22T13:47:49.981Z,190
2018-03-22T13:49:00.054Z,190
2018-03-22T13:50:10.194Z,190
2018-03-22T13:51:19.733Z,185
2018-03-22T13:52:29.805Z,185
2018-03-22T13:53:39.921Z,185
2018-03-22T13:54:49.987Z,185
2018-03-22T13:55:59.534Z,185
2018-03-22T13:57:09.069Z,185
2018-03-22T13:58:18.913Z,185
2018-03-22T13:59:28.976Z,185
2018-03-22T14:00:38.779Z,185
2018-03-22T14:01:48.823Z,185
2018-03-22T14:02:58.631Z,180
2018-03-22T14:04:08.713Z,180
2018-03-22T14:05:18.777Z,180
2018-03-22T14:06:28.857Z,180
2018-03-22T14:07:38.935Z,175
2018-03-22T14:08:48.746Z,175
2018-03-22T14:09:58.544Z,175
2018-03-22T14:11:08.628Z,175
2018-03-22T14:12:18.718Z,175
2018-03-22T14:13:28.525Z,170
2018-03-22T14:14:38.600Z,165
2018-03-22T14:15:48.679Z,165
2018-03-22T14:16:58.774Z,175
2018-03-22T14:18:08.869Z,170
2018-03-22T14:19:18.953Z,170
2018-03-22T14:20:28.754Z,170
2018-03-22T14:21:38.841Z,165
2018-03-22T14:22:48.989Z,165
2018-03-22T14:23:58.801Z,165
2018-03-22T14:25:08.876Z,165
2018-03-22T14:26:18.940Z,160
2018-03-22T14:27:29.024Z,160
2018-03-22T14:28:38.889Z,160
2018-03-22T14:29:48.944Z,160
2018-03-22T14:30:58.863Z,160
2018-03-22T14:32:08.676Z,160
2018-03-22T14:33:18.493Z,155
2018-03-22T14:34:28.356Z,155
2018-03-22T14:35:38.434Z,155
2018-03-22T14:36:48.558Z,155
2018-03-22T14:37:58.653Z,155
2018-03-22T14:39:08.752Z,155
2018-03-22T14:40:18.548Z,150
2018-03-22T14:41:28.686Z,150
2018-03-22T14:42:38.786Z,150
2018-03-22T14:43:48.847Z,150
2018-03-22T14:44:58.921Z,150
2018-03-22T14:46:08.729Z,150
2018-03-22T14:47:18.587Z,150
2018-03-22T14:48:28.681Z,150
2018-03-22T14:49:38.729Z,150
2018-03-22T14:50:48.549Z,150
2018-03-22T14:51:58.616Z,150
2018-03-22T14:53:08.698Z,150
2018-03-22T14:54:18.772Z,150
2018-03-22T14:55:28.851Z,150
2018-03-22T14:56:38.907Z,145
2018-03-22T14:57:48.987Z,145
2018-03-22T14:58:59.070Z,145
2018-03-22T15:00:09.158Z,145
2018-03-22T15:01:19.249Z,140
2018-03-22T15:02:29.366Z,140
2018-03-22T15:03:39.465Z,140
2018-03-22T15:04:49.535Z,135
2018-03-22T15:05:59.628Z,135
2018-03-22T15:07:09.452Z,135
2018-03-22T15:08:19.550Z,130
2018-03-22T15:09:29.356Z,130
2018-03-22T15:10:39.920Z,125
2018-03-22T15:11:49.739Z,125
2018-03-22T15:12:59.811Z,125
2018-03-22T15:14:09.918Z,125
2018-03-22T15:15:19.739Z,120
2018-03-22T15:16:29.592Z,120
2018-03-22T15:17:39.418Z,120
2018-03-22T15:18:49.509Z,120
2018-03-22T15:19:59.388Z,115
2018-03-22T15:21:09.459Z,115
2018-03-22T15:22:19.634Z,115
2018-03-22T15:23:29.692Z,115
2018-03-22T15:24:39.818Z,115
2018-03-22T15:25:49.898Z,115
2018-03-22T15:26:59.457Z,110
2018-03-22T15:28:09.255Z,110
2018-03-22T15:29:19.324Z,115
2018-03-22T15:30:29.398Z,105
2018-03-22T15:31:39.188Z,105
2018-03-22T15:32:48.747Z,105
2018-03-22T15:33:58.593Z,105
2018-03-22T15:35:08.681Z,105
2018-03-22T15:36:18.500Z,100
2018-03-22T15:37:28.314Z,100
2018-03-22T15:38:38.394Z,100
2018-03-22T15:39:48.253Z,100
2018-03-22T15:40:58.050Z,95
2018-03-22T15:42:08.137Z,95
2018-03-22T15:43:18.211Z,95
2018-03-22T15:44:28.279Z,95
2018-03-22T15:45:38.342Z,95
2018-03-22T15:46:48.497Z,95
2018-03-22T15:47:58.574Z,95
2018-03-22T15:49:08.373Z,95
2018-03-22T15:50:18.459Z,90
2018-03-22T15:51:28.640Z,90
2018-03-22T15:52:38.742Z,90
2018-03-22T15:53:48.960Z,85
2018-03-22T15:54:58.771Z,85
2018-03-22T15:56:08.591Z,85
2018-03-22T15:57:18.713Z,85
2018-03-22T15:58:28.796Z,80
2018-03-22T15:59:38.928Z,80
2018-03-22T16:00:48.713Z,75
2018-03-22T16:01:58.571Z,75
2018-03-22T16:03:08.722Z,75
2018-03-22T16:04:18.820Z,75
2018-03-22T16:05:29.967Z,70
2018-03-22T16:06:42.473Z,70
2018-03-22T16:07:54.951Z,65
2018-03-22T16:09:09.131Z,60
2018-03-22T16:10:20.155Z,65
2018-03-22T16:11:33.014Z,65
2018-03-22T16:12:45.135Z,60
2018-03-22T16:13:55.412Z,60
2018-03-22T16:15:07.397Z,60
2018-03-22T16:16:19.749Z,55
2018-03-22T16:17:31.791Z,55
2018-03-22T16:18:42.914Z,55
2018-03-22T16:19:55.587Z,50
2018-03-22T16:21:06.856Z,50
2018-03-22T16:22:18.758Z,50
2018-03-22T16:23:31.080Z,45
2018-03-22T16:24:42.807Z,45
2018-03-22T16:25:54.117Z,45
2018-03-22T16:27:04.740Z,40
2018-03-22T16:28:14.553Z,35
2018-03-22T16:29:24.370Z,35
2018-03-22T16:30:33.924Z,35
2018-03-22T16:31:43.739Z,35
2018-03-22T16:32:53.973Z,35
2018-03-22T16:34:03.799Z,35
2018-03-22T16:35:13.625Z,30
2018-03-22T16:36:23.759Z,30
2018-03-22T16:37:33.838Z,30
2018-03-22T16:38:43.166Z,30
2018-03-22T16:39:53.292Z,25
2018-03-22T16:41:02.578Z,25
2018-03-22T16:42:12.657Z,20
2018-03-22T16:43:22.486Z,20
2018-03-22T16:44:32.585Z,20
2018-03-22T16:45:42.724Z,20
2018-03-22T16:46:53.004Z,20
2018-03-22T16:48:03.121Z,15
2018-03-22T16:49:13.000Z,15
2018-03-22T16:50:22.816Z,15
2018-03-22T16:51:32.380Z,15
2018-03-22T16:52:42.473Z,10
2018-03-22T16:53:52.637Z,10
2018-03-22T16:55:02.744Z,10
2018-03-22T16:56:12.829Z,10
2018-03-22T16:57:22.938Z,10